Terminal Aerodrome Forecast
Issued by NWS New Orleans/Baton Rouge, LA

Home | Current Version | Previous Version | Text Only | Print | Product List | Glossary On
Versions: 1 2 3 4 5 6 7 8 9 10 11 12 13 14
000
FTUS44 KLIX 240520
TAFBTR
TAF
KBTR 240520Z 2406/2506 22005KT P6SM SCT030 BKN150
     FM241200 24004KT P6SM VCTS SCT030CB OVC080
     FM241500 26006KT P6SM SCT025 OVC050 PROB30 2415/2418 4SM TSRA
      BKN025CB
     FM241800 26007KT P6SM -SHRA VCTS SCT030CB BKN060
     FM250000 24005KT P6SM SCT030 BKN070=

USA.gov is the U.S. government's official web portal to all federal, state and local government web resources and services.